Time;durP1;ratioP1;P1;durP2;ratioP2;P2;SDS_P1;SDS_P2;PMS_P1;PMS_P2;Temp;Humidity;BMP_temperature;BMP_pressure;BME280_temperature;BME280_humidity;BME280_pressure;Samples;Min_cycle;Max_cycle;Signal;HPM_P1;HPM_P2
2021/09/05 00:00:59;;;;;;;9.73;7.30;;;;;;;12.35;88.02;93242.09;5048866;28;20053;-78
2021/09/05 00:03:25;;;;;;;9.32;7.65;;;;;;;12.39;87.71;93248.34;5049029;28;20099;-78
2021/09/05 00:05:52;;;;;;;9.80;7.13;;;;;;;12.37;87.41;93248.56;5048959;28;20045;-79
2021/09/05 00:08:19;;;;;;;11.48;7.72;;;;;;;12.31;87.44;93251.25;5048369;28;20059;-78
2021/09/05 00:10:46;;;;;;;10.60;7.65;;;;;;;12.21;87.64;93247.41;5048620;28;20060;-78
2021/09/05 00:13:14;;;;;;;10.48;7.65;;;;;;;12.13;88.58;93258.78;5048794;28;20053;-78
2021/09/05 00:15:40;;;;;;;10.13;7.80;;;;;;;12.08;89.05;93250.94;5048524;28;20041;-78
2021/09/05 00:18:07;;;;;;;9.50;7.85;;;;;;;12.10;88.92;93253.31;5048548;28;20052;-78
2021/09/05 00:20:34;;;;;;;11.02;7.60;;;;;;;12.07;89.24;93264.81;5048834;28;20075;-78
2021/09/05 00:23:03;;;;;;;9.35;7.43;;;;;;;12.00;89.50;93252.00;5048356;28;20053;-78
2021/09/05 00:25:30;;;;;;;11.70;8.02;;;;;;;12.01;89.79;93263.88;5048751;28;20049;-78
2021/09/05 00:27:57;;;;;;;11.02;8.57;;;;;;;11.99;90.57;93262.53;5048203;28;20573;-78
2021/09/05 00:30:25;;;;;;;10.50;8.65;;;;;;;11.99;90.69;93265.09;5048703;28;20048;-78
2021/09/05 00:32:52;;;;;;;11.35;8.57;;;;;;;11.94;91.24;93262.38;5048389;28;20490;-78
2021/09/05 00:35:18;;;;;;;13.25;8.63;;;;;;;11.91;91.18;93261.03;5048302;28;20048;-78
2021/09/05 00:37:45;;;;;;;11.48;8.05;;;;;;;11.90;90.89;93262.81;5048560;28;20098;-78
2021/09/05 00:40:13;;;;;;;9.68;7.78;;;;;;;11.72;91.04;93243.00;5051554;28;20110;-78
2021/09/05 00:42:40;;;;;;;10.32;8.20;;;;;;;11.82;91.24;93265.69;5051914;28;20505;-78
2021/09/05 00:45:07;;;;;;;9.57;8.30;;;;;;;11.73;90.86;93251.53;5052225;28;20500;-78
2021/09/05 00:47:36;;;;;;;11.05;8.18;;;;;;;11.79;90.51;93260.97;5052073;28;20103;-78
2021/09/05 00:50:03;;;;;;;13.02;7.93;;;;;;;11.47;90.63;93220.75;5052090;28;20099;-78
2021/09/05 00:52:30;;;;;;;11.13;7.75;;;;;;;11.71;90.60;93262.03;5051798;28;20052;-78
2021/09/05 00:54:57;;;;;;;10.68;7.90;;;;;;;11.68;91.19;93264.25;5051499;28;20060;-78
2021/09/05 00:57:25;;;;;;;12.63;7.95;;;;;;;11.47;91.17;93240.50;5052240;28;20494;-78
2021/09/05 00:59:51;;;;;;;10.85;7.63;;;;;;;11.48;90.82;93239.53;5052454;28;20440;-78
2021/09/05 01:02:18;;;;;;;9.98;8.52;;;;;;;11.61;91.71;93266.88;5051904;28;20048;-78
2021/09/05 01:04:46;;;;;;;11.77;7.75;;;;;;;11.55;91.65;93265.97;5052365;28;20106;-78
2021/09/05 01:07:14;;;;;;;12.00;8.32;;;;;;;11.51;92.11;93262.25;5052278;28;20056;-78
2021/09/05 01:09:41;;;;;;;11.15;8.35;;;;;;;11.47;92.32;93271.38;5052057;28;20049;-79
2021/09/05 01:12:08;;;;;;;10.85;8.57;;;;;;;11.46;92.13;93269.81;5052241;28;20111;-78
2021/09/05 01:14:35;;;;;;;12.95;8.82;;;;;;;11.24;92.57;93244.50;5051293;28;20490;-78
2021/09/05 01:17:02;;;;;;;14.05;9.43;;;;;;;11.36;92.95;93281.38;5051506;28;20045;-78
2021/09/05 01:19:29;;;;;;;10.75;8.75;;;;;;;11.23;93.28;93271.22;5051535;28;20465;-78
2021/09/05 01:21:58;;;;;;;11.63;8.77;;;;;;;11.32;92.96;93285.38;5051540;28;20052;-78
2021/09/05 01:24:24;;;;;;;10.20;8.52;;;;;;;11.30;93.01;93284.78;5051248;28;20462;-78
2021/09/05 01:26:52;;;;;;;9.77;8.55;;;;;;;11.29;93.35;93285.03;5051446;28;20053;-78
2021/09/05 01:29:20;;;;;;;11.95;8.70;;;;;;;11.21;93.60;93284.28;5051176;28;20478;-78
2021/09/05 01:31:49;;;;;;;11.50;8.45;;;;;;;11.23;93.89;93284.88;5051316;28;20044;-78
2021/09/05 01:34:18;;;;;;;11.18;8.35;;;;;;;11.09;93.51;93263.63;5051284;28;20045;-78
2021/09/05 01:36:46;;;;;;;10.55;8.15;;;;;;;11.28;93.14;93280.84;5051051;28;20052;-78
2021/09/05 01:39:15;;;;;;;12.05;8.40;;;;;;;11.26;92.46;93281.09;5050818;28;20048;-78
2021/09/05 01:41:43;;;;;;;10.50;7.72;;;;;;;11.23;92.19;93284.88;5051014;28;20095;-78
2021/09/05 01:44:11;;;;;;;10.90;8.95;;;;;;;11.17;92.04;93283.16;5051056;28;20052;-78
2021/09/05 01:46:40;;;;;;;9.77;7.88;;;;;;;11.00;92.56;93270.03;5050839;28;20052;-78
2021/09/05 01:49:07;;;;;;;11.52;9.02;;;;;;;11.07;92.42;93283.59;5051088;28;20049;-78
2021/09/05 01:51:34;;;;;;;11.57;9.00;;;;;;;10.82;92.11;93255.34;5050024;28;20053;-78
2021/09/05 01:54:02;;;;;;;10.18;8.00;;;;;;;11.08;92.03;93287.75;5050420;28;20051;-78
2021/09/05 01:56:29;;;;;;;12.80;8.35;;;;;;;11.11;92.23;93281.41;5050916;28;20045;-78
2021/09/05 01:58:56;;;;;;;11.93;8.90;;;;;;;11.10;92.11;93292.69;5050649;28;20053;-78
2021/09/05 02:01:23;;;;;;;11.80;9.00;;;;;;;11.08;92.43;93289.53;5050756;28;20049;-78
2021/09/05 02:03:51;;;;;;;10.68;8.25;;;;;;;11.05;92.93;93290.75;5050773;28;20102;-78
2021/09/05 02:06:18;;;;;;;13.02;8.75;;;;;;;11.07;92.35;93286.16;5050234;28;20045;-78
2021/09/05 02:08:45;;;;;;;12.50;9.35;;;;;;;11.06;92.05;93294.88;5050383;28;20565;-78
2021/09/05 02:11:12;;;;;;;10.98;8.60;;;;;;;11.05;92.00;93288.19;5050222;28;20490;-77
2021/09/05 02:13:39;;;;;;;12.02;9.65;;;;;;;11.07;92.77;93288.75;5050034;28;20056;-77
2021/09/05 02:16:06;;;;;;;12.40;9.57;;;;;;;11.00;93.49;93289.78;5050273;28;20044;-77
2021/09/05 02:18:33;;;;;;;13.77;9.60;;;;;;;10.95;93.59;93288.66;5050279;28;20053;-77
2021/09/05 02:21:01;;;;;;;12.13;9.50;;;;;;;10.97;93.39;93285.84;5050539;28;20041;-78
2021/09/05 02:23:28;;;;;;;12.45;8.98;;;;;;;10.98;93.79;93291.78;5050300;28;20098;-77
2021/09/05 02:25:55;;;;;;;11.15;9.10;;;;;;;11.01;93.24;93294.72;5050037;28;20052;-77
2021/09/05 02:28:21;;;;;;;12.30;9.43;;;;;;;10.73;93.79;93266.88;5050182;28;20447;-77
2021/09/05 02:30:48;;;;;;;12.45;9.75;;;;;;;10.83;93.92;93293.69;5050232;28;20118;-77
2021/09/05 02:33:15;;;;;;;12.98;10.27;;;;;;;10.61;94.27;93267.56;5049885;28;20098;-78
2021/09/05 02:35:42;;;;;;;14.02;9.18;;;;;;;10.73;94.67;93290.78;5050142;28;20110;-78
2021/09/05 02:38:10;;;;;;;12.10;9.48;;;;;;;10.75;94.48;93303.44;5050026;28;20049;-77
2021/09/05 02:40:37;;;;;;;16.10;10.00;;;;;;;10.73;94.41;93298.47;5049925;28;20057;-77
2021/09/05 02:43:04;;;;;;;13.32;9.40;;;;;;;10.60;94.14;93283.16;5049801;28;20079;-78
2021/09/05 02:45:31;;;;;;;12.35;9.90;;;;;;;10.65;94.30;93312.38;5049890;28;20045;-78
2021/09/05 02:47:58;;;;;;;14.52;9.30;;;;;;;10.63;94.39;93306.66;5049826;28;20061;-77
2021/09/05 02:50:25;;;;;;;11.43;8.77;;;;;;;10.56;94.53;93303.34;5049615;28;20049;-77
2021/09/05 02:52:51;;;;;;;13.40;9.60;;;;;;;10.52;94.48;93299.63;5049566;28;20052;-78
2021/09/05 02:55:20;;;;;;;10.48;9.02;;;;;;;10.49;95.07;93303.38;5049525;28;20049;-78
2021/09/05 02:57:46;;;;;;;15.43;9.88;;;;;;;10.46;95.04;93303.78;5049463;28;20056;-77
2021/09/05 03:00:14;;;;;;;16.42;9.05;;;;;;;10.41;95.08;93301.00;5049641;28;20103;-78
2021/09/05 03:02:41;;;;;;;11.88;9.45;;;;;;;10.36;95.83;93311.09;5048902;28;20053;-78
2021/09/05 03:05:08;;;;;;;13.88;9.98;;;;;;;10.35;96.09;93309.53;5049421;28;20056;-78
2021/09/05 03:07:35;;;;;;;11.98;9.55;;;;;;;10.33;96.61;93312.34;5049590;28;20048;-78
2021/09/05 03:10:01;;;;;;;12.43;9.63;;;;;;;10.31;96.85;93298.13;5049081;28;20563;-78
2021/09/05 03:12:30;;;;;;;13.35;9.40;;;;;;;10.34;96.49;93297.69;5049226;28;20053;-79
2021/09/05 03:14:56;;;;;;;14.80;8.98;;;;;;;10.40;96.36;93302.81;5049278;28;20541;-78
2021/09/05 03:17:24;;;;;;;13.30;10.32;;;;;;;10.43;95.88;93304.97;5049239;28;20056;-78
2021/09/05 03:19:51;;;;;;;12.90;8.70;;;;;;;10.43;95.83;93307.53;5049044;28;20469;-79
2021/09/05 03:22:18;;;;;;;11.43;9.43;;;;;;;10.39;96.43;93301.25;5048955;28;20052;-78
2021/09/05 03:24:44;;;;;;;13.60;9.50;;;;;;;10.36;96.55;93298.28;5049382;28;20406;-79
2021/09/05 03:27:11;;;;;;;13.73;9.50;;;;;;;10.41;95.86;93306.94;5049027;28;20053;-78
2021/09/05 03:29:39;;;;;;;12.48;9.63;;;;;;;10.42;95.41;93307.75;5049111;28;20049;-78
2021/09/05 03:32:07;;;;;;;11.02;8.73;;;;;;;10.38;94.82;93309.13;5049337;28;20064;-78
2021/09/05 03:34:34;;;;;;;11.60;8.50;;;;;;;10.38;94.72;93309.91;5049231;28;20045;-79
2021/09/05 03:37:00;;;;;;;11.27;8.60;;;;;;;10.38;93.88;93309.13;5048977;28;20049;-78
2021/09/05 03:39:27;;;;;;;12.10;9.18;;;;;;;10.34;93.92;93310.53;5048767;28;20053;-78
2021/09/05 03:41:54;;;;;;;12.05;8.82;;;;;;;10.31;94.47;93318.66;5048968;28;20059;-78
2021/09/05 03:44:21;;;;;;;13.90;8.95;;;;;;;10.34;94.05;93316.47;5048670;28;20048;-78
2021/09/05 03:46:49;;;;;;;11.82;9.05;;;;;;;10.33;94.62;93322.59;5062724;28;20064;-78
2021/09/05 03:49:16;;;;;;;20.00;9.30;;;;;;;10.33;94.25;93321.81;5069179;28;20045;-77
2021/09/05 03:51:52;;;;;;;12.82;8.32;;;;;;;10.35;94.11;93322.38;5061347;28;20490;-77
2021/09/05 03:54:19;;;;;;;12.18;8.40;;;;;;;10.40;93.87;93332.81;5060998;28;20037;-76
2021/09/05 03:56:46;;;;;;;11.98;8.88;;;;;;;10.45;93.53;93324.56;5059737;28;20055;-76
2021/09/05 03:59:13;;;;;;;10.60;8.88;;;;;;;10.35;93.34;93317.25;5063847;28;20413;-76
2021/09/05 04:01:41;;;;;;;12.25;8.60;;;;;;;10.43;93.65;93325.53;5051547;28;20460;-76
2021/09/05 04:04:09;;;;;;;12.85;9.15;;;;;;;10.43;93.94;93332.47;5048933;28;20115;-76
2021/09/05 04:06:36;;;;;;;11.88;8.77;;;;;;;10.34;94.48;93328.50;5048956;28;20057;-77
2021/09/05 04:09:09;;;;;;;13.90;9.75;;;;;;;10.29;95.10;93329.13;5048687;28;20052;-76
2021/09/05 04:11:36;;;;;;;15.32;9.85;;;;;;;9.97;95.03;93290.56;5048947;28;20052;-76
2021/09/05 04:14:03;;;;;;;18.98;10.25;;;;;;;10.19;95.71;93321.88;5050114;28;20060;-76
2021/09/05 04:16:30;;;;;;;16.85;10.15;;;;;;;10.31;95.84;93332.28;5052817;28;20049;-76
2021/09/05 04:18:57;;;;;;;20.80;9.93;;;;;;;10.40;94.99;93343.09;5068309;28;20113;-76
2021/09/05 04:21:25;;;;;;;23.25;11.23;;;;;;;10.34;95.50;93337.00;5081230;28;20508;-76
2021/09/05 04:23:52;;;;;;;17.17;9.60;;;;;;;10.37;95.80;93339.16;5081392;28;20050;-76
2021/09/05 04:26:19;;;;;;;19.10;10.30;;;;;;;10.13;96.30;93307.25;5082543;28;20071;-77
2021/09/05 04:28:45;;;;;;;16.92;9.95;;;;;;;10.41;96.43;93348.03;5072164;28;20040;-77
2021/09/05 04:31:12;;;;;;;14.23;9.85;;;;;;;10.39;96.73;93344.09;5072143;28;20098;-76
2021/09/05 04:33:39;;;;;;;13.98;10.00;;;;;;;10.38;97.10;93342.53;5071893;28;20048;-77
2021/09/05 04:36:06;;;;;;;16.70;10.68;;;;;;;10.49;97.21;93343.66;5071272;28;20058;-77
2021/09/05 04:38:34;;;;;;;18.08;11.45;;;;;;;10.56;96.50;93342.66;5092422;28;20101;-78
2021/09/05 04:41:01;;;;;;;21.25;10.52;;;;;;;10.41;97.30;93322.34;5092071;28;20044;-78
2021/09/05 04:43:28;;;;;;;16.35;10.77;;;;;;;10.66;96.93;93347.34;5092203;28;20051;-77
2021/09/05 04:45:56;;;;;;;15.57;9.23;;;;;;;10.65;96.92;93316.72;5092001;28;20048;-78
2021/09/05 04:48:23;;;;;;;18.83;10.30;;;;;;;10.72;97.61;93324.38;5092158;28;20469;-78
2021/09/05 04:50:50;;;;;;;13.35;9.38;;;;;;;10.83;98.10;93334.00;5091093;28;20048;-77
2021/09/05 04:53:16;;;;;;;13.98;10.20;;;;;;;10.83;97.05;93323.72;5071713;28;20594;-77
2021/09/05 04:55:44;;;;;;;14.27;9.60;;;;;;;10.88;99.57;93336.72;5071830;28;20094;-77
2021/09/05 04:58:11;;;;;;;14.02;9.90;;;;;;;11.00;98.01;93341.19;5063147;28;20044;-76
2021/09/05 05:00:38;;;;;;;14.25;9.27;;;;;;;11.04;98.04;93337.22;5049020;28;20480;-77
2021/09/05 05:03:05;;;;;;;20.52;11.70;;;;;;;11.08;97.19;93336.59;5051884;28;20099;-77
2021/09/05 05:05:32;;;;;;;34.15;16.63;;;;;;;11.28;97.30;93334.84;5051930;28;20045;-77
2021/09/05 05:08:01;;;;;;;24.40;13.10;;;;;;;11.34;96.90;93337.38;5051594;28;20091;-78
2021/09/05 05:10:28;;;;;;;23.55;13.27;;;;;;;11.38;97.17;93329.25;5051741;28;20103;-77
2021/09/05 05:12:56;;;;;;;22.85;11.38;;;;;;;11.48;96.38;93335.47;5051275;28;20056;-78
2021/09/05 05:15:23;;;;;;;19.90;11.20;;;;;;;11.54;96.27;93339.00;5051327;28;20494;-77
2021/09/05 05:17:50;;;;;;;29.85;11.82;;;;;;;11.66;95.69;93339.06;5051596;28;20045;-77
2021/09/05 05:20:17;;;;;;;22.52;11.30;;;;;;;11.76;95.48;93344.53;5051361;28;20527;-77
2021/09/05 05:22:45;;;;;;;20.38;11.00;;;;;;;11.86;94.43;93345.81;5051521;28;20383;-77
2021/09/05 05:25:12;;;;;;;18.73;10.45;;;;;;;11.86;94.07;93335.53;5050981;28;20053;-77
2021/09/05 05:27:39;;;;;;;22.35;10.75;;;;;;;12.04;93.42;93355.38;5051326;28;20048;-76
2021/09/05 05:30:08;;;;;;;16.33;10.85;;;;;;;11.95;93.82;93328.31;5048008;28;20059;-78
2021/09/05 05:32:34;;;;;;;15.05;10.32;;;;;;;12.11;92.59;93337.25;5049025;28;20045;-78
2021/09/05 05:35:01;;;;;;;20.33;13.82;;;;;;;12.13;94.94;93336.03;5050193;28;20055;-79
2021/09/05 05:37:28;;;;;;;13.38;9.68;;;;;;;12.22;95.40;93359.72;5050986;28;20053;-78
2021/09/05 05:39:55;;;;;;;11.88;9.65;;;;;;;12.22;95.15;93346.06;5050954;28;20456;-79
2021/09/05 05:42:21;;;;;;;11.70;8.82;;;;;;;12.41;95.32;93362.28;5051293;28;20052;-79
2021/09/05 05:44:48;;;;;;;12.63;9.18;;;;;;;12.54;92.12;93351.00;5050748;28;20504;-79
2021/09/05 05:47:16;;;;;;;15.52;10.55;;;;;;;12.91;90.83;93368.19;5050876;28;20061;-79
2021/09/05 05:49:46;;;;;;;22.38;13.68;;;;;;;13.08;88.65;93345.13;5050964;28;20106;-78
2021/09/05 05:52:13;;;;;;;21.83;14.98;;;;;;;13.31;88.92;93359.88;5051310;28;20048;-79
2021/09/05 05:54:40;;;;;;;22.70;15.57;;;;;;;13.56;87.95;93350.38;5050715;28;20401;-79
2021/09/05 05:57:07;;;;;;;23.30;13.77;;;;;;;13.86;86.08;93367.53;5050652;28;20052;-79
2021/09/05 05:59:34;;;;;;;18.70;12.10;;;;;;;14.08;84.05;93367.75;5050556;28;20167;-79
2021/09/05 06:02:01;;;;;;;20.73;12.38;;;;;;;14.26;83.13;93364.22;5050198;28;20045;-79
2021/09/05 06:04:29;;;;;;;20.27;12.60;;;;;;;14.42;83.27;93369.69;5047107;28;20091;-79
2021/09/05 06:06:56;;;;;;;21.30;12.25;;;;;;;14.61;81.82;93367.72;5050369;28;20498;-79
2021/09/05 06:09:23;;;;;;;26.95;16.85;;;;;;;14.62;82.94;93365.94;5050055;28;20532;-79
2021/09/05 06:11:49;;;;;;;24.80;14.93;;;;;;;14.75;82.02;93376.00;5050419;28;20049;-79
2021/09/05 06:14:16;;;;;;;35.95;17.60;;;;;;;14.85;81.01;93377.97;5050180;28;20056;-79
2021/09/05 06:16:43;;;;;;;25.42;16.13;;;;;;;14.90;80.33;93370.31;5050027;28;20045;-78
2021/09/05 06:19:10;;;;;;;29.52;17.77;;;;;;;15.05;80.43;93387.13;5049741;28;20548;-78
2021/09/05 06:21:38;;;;;;;31.33;16.60;;;;;;;15.18;80.32;93384.25;5049591;28;20049;-78
2021/09/05 06:24:05;;;;;;;33.78;17.00;;;;;;;15.32;80.34;93389.13;5049628;28;20045;-78
2021/09/05 06:26:32;;;;;;;30.50;16.25;;;;;;;15.40;80.38;93377.56;5050189;28;20107;-79
2021/09/05 06:28:58;;;;;;;33.83;17.02;;;;;;;15.61;79.67;93386.47;5049653;28;20525;-80
2021/09/05 06:31:25;;;;;;;32.47;16.58;;;;;;;15.69;79.60;93380.09;5050328;28;20045;-79
2021/09/05 06:33:52;;;;;;;40.55;21.73;;;;;;;15.69;79.27;93380.09;5049726;28;20041;-80
2021/09/05 06:36:19;;;;;;;35.25;19.17;;;;;;;15.27;79.66;93376.88;5049260;28;20437;-80
2021/09/05 06:38:48;;;;;;;30.15;16.83;;;;;;;15.55;79.22;93403.72;5049839;28;20432;-79
2021/09/05 06:41:15;;;;;;;39.33;19.10;;;;;;;15.15;79.16;93358.06;5049689;28;20475;-80
2021/09/05 06:43:42;;;;;;;45.10;23.85;;;;;;;15.10;80.12;93403.50;5049977;28;20045;-80
2021/09/05 06:46:29;;;;;;;;;;;;;;;;;;;;;
2021/09/05 06:48:56;;;;;;;37.05;20.23;;;;;;;15.12;79.10;93392.13;5050684;28;20410;-80
2021/09/05 06:51:23;;;;;;;39.78;23.67;;;;;;;15.03;79.60;93379.59;5046384;28;20049;-82
2021/09/05 06:53:56;;;;;;;59.45;35.33;;;;;;;14.98;79.86;93405.38;5040330;28;20041;-82
2021/09/05 06:59:06;;;;;;;64.97;39.20;;;;;;;14.83;83.37;93406.66;5036815;28;20103;-80
2021/09/05 07:01:41;;;;;;;60.72;37.72;;;;;;;14.68;83.18;93409.72;5040752;28;20091;-81
2021/09/05 07:04:08;;;;;;;67.05;38.38;;;;;;;14.81;83.81;93411.28;5044410;28;20061;-80
2021/09/05 07:06:36;;;;;;;59.88;33.65;;;;;;;15.03;82.11;93408.06;5049540;28;20052;-81
2021/09/05 07:09:05;;;;;;;55.38;29.98;;;;;;;15.27;80.84;93420.88;5049670;28;20067;-80
2021/09/05 07:11:31;;;;;;;54.22;30.40;;;;;;;15.20;80.94;93413.28;5049401;28;20073;-80
2021/09/05 07:13:58;;;;;;;51.30;26.98;;;;;;;15.25;78.65;93417.72;5049147;28;20049;-80
2021/09/05 07:16:25;;;;;;;50.50;27.17;;;;;;;15.42;78.31;93394.44;5049439;28;20451;-79
2021/09/05 07:18:52;;;;;;;38.08;22.63;;;;;;;15.39;75.81;93374.22;5049135;28;20049;-80
2021/09/05 07:21:18;;;;;;;42.88;24.08;;;;;;;15.73;75.66;93407.06;5048699;28;20052;-80
2021/09/05 07:23:45;;;;;;;30.58;17.50;;;;;;;16.10;74.40;93429.91;5049360;28;20546;-79
2021/09/05 07:26:13;;;;;;;30.50;16.45;;;;;;;16.40;72.70;93420.94;5048852;28;20456;-79
2021/09/05 07:28:40;;;;;;;34.90;19.83;;;;;;;16.72;72.95;93414.34;5048818;28;20060;-80
2021/09/05 07:31:07;;;;;;;43.35;20.10;;;;;;;17.12;71.97;93415.03;5049242;28;20086;-79
2021/09/05 07:33:34;;;;;;;33.22;19.08;;;;;;;17.50;70.71;93415.88;5049276;28;20098;-79
2021/09/05 07:36:01;;;;;;;27.20;16.23;;;;;;;17.90;68.37;93413.84;5048966;28;20410;-79
2021/09/05 07:38:28;;;;;;;43.92;18.95;;;;;;;18.24;67.55;93407.53;5049307;28;20068;-80
2021/09/05 07:40:55;;;;;;;28.20;16.15;;;;;;;18.67;66.02;93411.91;5048927;28;20052;-79
2021/09/05 07:43:23;;;;;;;28.70;15.65;;;;;;;19.09;64.23;93410.22;5048789;28;20052;-79
2021/09/05 07:45:50;;;;;;;26.88;14.93;;;;;;;19.46;63.77;93414.44;5049223;28;20045;-79
2021/09/05 07:48:16;;;;;;;34.05;15.63;;;;;;;19.86;62.63;93403.47;5049293;28;20564;-80
2021/09/05 07:50:43;;;;;;;22.05;11.68;;;;;;;20.05;60.72;93393.31;5052520;28;20053;-81
2021/09/05 07:53:10;;;;;;;16.95;9.75;;;;;;;20.50;58.04;93410.91;5053196;28;20395;-80
2021/09/05 07:55:37;;;;;;;17.77;9.55;;;;;;;20.74;57.33;93416.28;5053253;28;20445;-80
2021/09/05 07:58:04;;;;;;;18.33;10.00;;;;;;;20.88;56.14;93413.88;5052793;28;20048;-80
2021/09/05 08:00:32;;;;;;;14.38;9.45;;;;;;;20.76;57.23;93408.97;5052641;28;20056;-80
2021/09/05 08:02:59;;;;;;;18.23;11.52;;;;;;;19.31;61.60;93420.38;5052651;28;20059;-80
2021/09/05 08:05:25;;;;;;;22.30;10.43;;;;;;;18.87;63.22;93400.75;5052784;28;20045;-81
2021/09/05 08:07:52;;;;;;;20.20;11.25;;;;;;;19.34;62.85;93409.47;5052717;28;20055;-80
2021/09/05 08:10:19;;;;;;;17.77;9.63;;;;;;;19.82;61.45;93411.03;5052893;28;20107;-80
2021/09/05 08:12:46;;;;;;;20.42;9.77;;;;;;;20.34;61.00;93416.19;5052763;28;20091;-80
2021/09/05 08:15:13;;;;;;;14.32;8.63;;;;;;;20.15;60.16;93392.50;5052518;28;20055;-80
2021/09/05 08:17:41;;;;;;;18.50;10.27;;;;;;;20.76;59.67;93406.38;5052381;28;20549;-82
2021/09/05 08:20:09;;;;;;;15.40;8.40;;;;;;;21.09;58.29;93409.34;5052649;28;20110;-82
2021/09/05 08:22:36;;;;;;;17.25;9.52;;;;;;;20.27;58.69;93411.22;5052717;28;20068;-81
2021/09/05 08:25:03;;;;;;;16.25;9.13;;;;;;;20.33;58.73;93414.63;5052431;28;20487;-80
2021/09/05 08:27:30;;;;;;;16.70;9.93;;;;;;;19.81;59.78;93419.13;5052293;28;20056;-81
2021/09/05 08:29:57;;;;;;;16.83;8.88;;;;;;;20.22;59.53;93406.03;5052415;28;20045;-80
2021/09/05 08:32:24;;;;;;;17.85;9.30;;;;;;;20.71;59.92;93390.72;5052759;28;20053;-79
2021/09/05 08:34:52;;;;;;;17.70;8.88;;;;;;;20.85;56.62;93416.22;5052207;28;20044;-80
2021/09/05 08:37:19;;;;;;;14.38;8.68;;;;;;;21.07;57.68;93406.22;5052580;28;20143;-80
2021/09/05 08:39:46;;;;;;;15.20;8.57;;;;;;;21.37;56.19;93393.22;5052268;28;20067;-80
2021/09/05 08:42:13;;;;;;;16.42;8.05;;;;;;;21.88;55.81;93405.13;5052108;28;20045;-80
2021/09/05 08:44:40;;;;;;;10.43;7.50;;;;;;;22.25;52.94;93391.69;5052216;28;20048;-81
2021/09/05 08:47:08;;;;;;;13.57;7.75;;;;;;;21.91;52.84;93393.34;5052132;28;20505;-80
2021/09/05 08:49:37;;;;;;;9.98;6.63;;;;;;;21.84;54.72;93398.88;5052269;28;20452;-81
2021/09/05 08:52:06;;;;;;;7.45;4.57;;;;;;;21.56;53.50;93385.50;5052173;28;20045;-81
2021/09/05 08:54:33;;;;;;;7.72;4.45;;;;;;;21.44;53.34;93372.78;5051811;28;20052;-80
2021/09/05 08:57:01;;;;;;;6.18;4.50;;;;;;;21.87;51.94;93387.09;5051718;28;20508;-80
2021/09/05 08:59:28;;;;;;;7.05;4.32;;;;;;;;;;5051439;28;20048;-79
2021/09/05 09:01:59;;;;;;;10.45;4.53;;;;;;;22.83;50.57;93377.69;5051975;28;20471;-79
2021/09/05 09:04:26;;;;;;;6.38;4.20;;;;;;;22.59;49.72;93382.19;5051656;28;20049;-80
2021/09/05 09:06:52;;;;;;;9.70;3.90;;;;;;;21.87;45.66;93379.25;5052041;28;20059;-80
2021/09/05 09:09:21;;;;;;;7.45;3.65;;;;;;;22.30;46.28;93381.16;5051685;28;20088;-80
2021/09/05 09:11:53;;;;;;;5.30;3.60;;;;;;;21.67;45.04;93380.19;5051971;28;20098;-80
2021/09/05 09:14:22;;;;;;;5.78;4.07;;;;;;;21.67;46.20;93374.97;5051712;28;20049;-81
2021/09/05 09:16:50;;;;;;;4.80;3.55;;;;;;;21.79;46.01;93372.03;5051421;28;20049;-80
2021/09/05 09:19:25;;;;;;;6.07;3.30;;;;;;;22.05;45.67;93377.78;5051289;28;20418;-80
2021/09/05 09:21:53;;;;;;;5.05;3.40;;;;;;;21.80;46.02;93363.13;5051534;28;20067;-79
2021/09/05 09:24:22;;;;;;;6.43;3.80;;;;;;;21.51;46.96;93330.66;5051160;28;20056;-79
2021/09/05 09:27:00;;;;;;;5.13;3.38;;;;;;;21.42;46.83;93366.31;5051371;28;20051;-80
2021/09/05 09:29:27;;;;;;;7.45;3.88;;;;;;;21.59;47.14;93366.69;5051449;28;20422;-80
2021/09/05 09:31:58;;;;;;;8.23;4.05;;;;;;;21.72;47.27;93374.97;5051119;28;20045;-80
2021/09/05 09:34:26;;;;;;;5.50;3.78;;;;;;;21.18;48.13;93372.19;5051353;28;20168;-79
2021/09/05 09:36:57;;;;;;;7.13;3.75;;;;;;;21.38;47.28;93380.97;5050905;28;20051;-81
2021/09/05 09:39:28;;;;;;;5.85;3.60;;;;;;;21.03;47.77;93316.44;5050317;28;20041;-80
2021/09/05 09:41:55;;;;;;;5.20;3.60;;;;;;;21.42;47.54;93371.53;5050447;28;20139;-80
2021/09/05 09:44:29;;;;;;;8.27;3.95;;;;;;;21.48;46.91;93373.81;5050453;28;20084;-77
2021/09/05 09:47:08;;;;;;;6.15;3.55;;;;;;;21.59;47.38;93371.09;5045233;28;20057;-78
2021/09/05 09:49:48;;;;;;;7.03;3.83;;;;;;;21.45;46.27;93353.47;5049193;28;20049;-79
2021/09/05 09:52:15;;;;;;;5.65;3.80;;;;;;;21.68;46.15;93361.63;5050986;28;20087;-79
2021/09/05 09:54:44;;;;;;;11.98;4.05;;;;;;;21.70;45.55;93366.59;5050723;28;20050;-79
2021/09/05 09:57:11;;;;;;;7.60;3.67;;;;;;;21.56;45.41;93369.81;5050759;28;20041;-78
2021/09/05 09:59:39;;;;;;;7.35;3.50;;;;;;;21.55;45.13;93372.72;5050249;28;20793;-78
2021/09/05 10:02:06;;;;;;;6.40;3.72;;;;;;;21.64;45.42;93373.69;5050324;28;20059;-79
2021/09/05 10:04:33;;;;;;;7.47;3.88;;;;;;;21.31;45.73;93365.59;5050439;28;20045;-77
2021/09/05 10:07:02;;;;;;;5.10;3.55;;;;;;;21.66;46.72;93368.94;5050137;28;20045;-78
2021/09/05 10:09:30;;;;;;;5.40;3.45;;;;;;;21.90;45.08;93378.72;5050497;28;20041;-78
2021/09/05 10:11:59;;;;;;;7.50;4.07;;;;;;;21.99;43.17;93373.66;5049484;28;20152;-79
2021/09/05 10:14:26;;;;;;;6.43;3.58;;;;;;;21.63;44.62;93377.34;5050251;28;20049;-78
2021/09/05 10:16:54;;;;;;;10.25;3.95;;;;;;;21.63;43.02;93357.22;5050395;28;20045;-78
2021/09/05 10:19:21;;;;;;;9.32;3.53;;;;;;;21.82;44.09;93369.63;5050242;28;20501;-78
2021/09/05 10:21:48;;;;;;;7.40;4.00;;;;;;;21.47;45.96;93358.41;5050243;28;20452;-79
2021/09/05 10:24:18;;;;;;;5.05;3.63;;;;;;;20.93;45.46;93371.31;5050386;28;20053;-78
2021/09/05 10:27:03;;;;;;;6.32;3.63;;;;;;;20.96;46.75;93370.75;5050127;28;20073;-78
2021/09/05 10:29:31;;;;;;;6.25;4.57;;;;;;;20.94;46.76;93371.06;5049901;28;20055;-79
2021/09/05 10:31:58;;;;;;;9.13;4.03;;;;;;;21.45;46.33;93373.56;5050154;28;20532;-79
2021/09/05 10:34:34;;;;;;;7.07;3.65;;;;;;;21.48;46.13;93365.19;5049867;28;20517;-79
2021/09/05 10:37:05;;;;;;;5.07;3.42;;;;;;;21.92;44.89;93376.59;5050029;28;20068;-80
2021/09/05 10:39:32;;;;;;;6.68;3.50;;;;;;;21.48;44.98;93378.28;5050017;28;20049;-79
2021/09/05 10:42:02;;;;;;;5.80;3.53;;;;;;;21.75;44.58;93375.19;5042469;28;20402;-79
2021/09/05 10:44:29;;;;;;;5.78;3.80;;;;;;;21.64;44.68;93352.78;5048333;28;20437;-79
2021/09/05 10:46:56;;;;;;;6.38;3.80;;;;;;;21.52;44.86;93371.41;5049996;28;20057;-80
2021/09/05 10:49:39;;;;;;;5.65;4.00;;;;;;;21.65;45.42;93374.47;5049954;28;20048;-79
2021/09/05 10:52:07;;;;;;;5.35;4.00;;;;;;;21.76;45.10;93345.38;5049429;28;20501;-79
2021/09/05 10:54:44;;;;;;;9.35;3.50;;;;;;;22.06;44.04;93340.09;5049470;28;20559;-80
2021/09/05 10:57:32;;;;;;;5.60;3.70;;;;;;;22.37;41.91;93371.16;5049594;28;20049;-80
2021/09/05 11:00:07;;;;;;;6.88;3.83;;;;;;;22.81;42.03;93366.72;5049310;28;20053;-79
2021/09/05 11:03:07;;;;;;;7.90;3.95;;;;;;;22.38;42.42;93348.38;5049276;28;20118;-79
2021/09/05 11:05:34;;;;;;;8.07;3.75;;;;;;;22.83;42.80;93353.34;5049131;28;20049;-80
2021/09/05 11:08:25;;;;;;;6.47;4.18;;;;;;;22.28;42.68;93372.84;5049461;28;20067;-80
2021/09/05 11:10:52;;;;;;;5.22;3.65;;;;;;;;;;5049221;28;20048;-80
2021/09/05 11:13:37;;;;;;;7.65;4.15;;;;;;;;;;5049013;28;20056;-79
2021/09/05 11:16:16;;;;;;;8.18;3.90;;;;;;;22.51;43.52;93366.03;5049533;28;20064;-79
2021/09/05 11:18:44;;;;;;;6.32;3.97;;;;;;;22.00;43.63;93355.06;5049348;28;20484;-79
2021/09/05 11:21:23;;;;;;;5.85;3.97;;;;;;;21.75;44.23;93371.78;5044761;28;20104;-79
2021/09/05 11:23:51;;;;;;;7.15;3.97;;;;;;;21.62;44.42;93378.41;5042742;28;20103;-78
2021/09/05 11:26:18;;;;;;;5.88;4.25;;;;;;;21.48;44.62;93355.50;5043144;28;20096;-79
2021/09/05 11:28:45;;;;;;;5.57;3.90;;;;;;;21.32;44.48;93354.06;5046610;28;20044;-79
2021/09/05 11:31:12;;;;;;;6.75;3.92;;;;;;;21.28;45.02;93374.75;5049306;28;20045;-78
2021/09/05 11:33:40;;;;;;;5.90;4.18;;;;;;;21.47;45.97;93366.22;5048844;28;20053;-79